sensor_id;sensor_type;location;lat;lon;timestamp;pressure;altitude;pressure_sealevel;temperature;humidity
71643;BME280;59438;45.014;39.006;2022-12-18T00:01:32;101889.63;;;8.23;74.75
71643;BME280;59438;45.014;39.006;2022-12-18T00:04:00;101893.13;;;8.22;74.63
71643;BME280;59438;45.014;39.006;2022-12-18T00:06:28;101879.25;;;8.14;74.75
71643;BME280;59438;45.014;39.006;2022-12-18T00:08:55;101884.44;;;8.17;74.54
71643;BME280;59438;45.014;39.006;2022-12-18T00:11:25;101874.91;;;8.10;74.53
71643;BME280;59438;45.014;39.006;2022-12-18T00:13:54;101885.31;;;8.16;74.58
71643;BME280;59438;45.014;39.006;2022-12-18T00:16:22;101810.69;;;7.70;74.43
71643;BME280;59438;45.014;39.006;2022-12-18T00:18:50;101894.06;;;8.13;74.52
71643;BME280;59438;45.014;39.006;2022-12-18T00:21:17;101904.56;;;8.10;74.56
71643;BME280;59438;45.014;39.006;2022-12-18T00:23:44;101895.00;;;8.07;74.70
71643;BME280;59438;45.014;39.006;2022-12-18T00:26:12;101901.97;;;8.05;74.71
71643;BME280;59438;45.014;39.006;2022-12-18T00:28:39;101901.97;;;8.04;74.72
71643;BME280;59438;45.014;39.006;2022-12-18T00:31:08;101898.50;;;8.03;74.91
71643;BME280;59438;45.014;39.006;2022-12-18T00:33:36;101902.84;;;8.03;74.85
71643;BME280;59438;45.014;39.006;2022-12-18T00:36:03;101906.34;;;8.03;74.52
71643;BME280;59438;45.014;39.006;2022-12-18T00:38:30;101869.91;;;7.80;74.75
71643;BME280;59438;45.014;39.006;2022-12-18T00:40:57;101912.44;;;8.02;74.83
71643;BME280;59438;45.014;39.006;2022-12-18T00:43:23;101917.69;;;8.02;74.85
71643;BME280;59438;45.014;39.006;2022-12-18T00:45:49;101908.97;;;8.03;75.04
71643;BME280;59438;45.014;39.006;2022-12-18T00:48:17;101909.84;;;8.04;74.92
71643;BME280;59438;45.014;39.006;2022-12-18T00:50:44;101915.97;;;8.01;74.71
71643;BME280;59438;45.014;39.006;2022-12-18T00:53:11;101917.69;;;8.01;74.98
71643;BME280;59438;45.014;39.006;2022-12-18T00:55:38;101920.34;;;7.96;75.00
71643;BME280;59438;45.014;39.006;2022-12-18T00:58:05;101929.06;;;7.97;74.48
71643;BME280;59438;45.014;39.006;2022-12-18T01:00:31;101928.19;;;7.96;74.97
71643;BME280;59438;45.014;39.006;2022-12-18T01:02:59;101925.56;;;7.95;75.00
71643;BME280;59438;45.014;39.006;2022-12-18T01:05:26;101934.31;;;7.94;74.59
71643;BME280;59438;45.014;39.006;2022-12-18T01:07:53;101929.09;;;7.94;74.66
71643;BME280;59438;45.014;39.006;2022-12-18T01:10:19;101928.22;;;7.90;74.97
71643;BME280;59438;45.014;39.006;2022-12-18T01:12:46;101930.84;;;7.90;75.18
71643;BME280;59438;45.014;39.006;2022-12-18T01:15:13;101919.56;;;7.82;75.47
71643;BME280;59438;45.014;39.006;2022-12-18T01:17:40;101940.47;;;7.90;75.05
71643;BME280;59438;45.014;39.006;2022-12-18T01:20:11;101909.19;;;7.71;75.11
71643;BME280;59438;45.014;39.006;2022-12-18T01:22:39;101930.03;;;7.86;75.27
71643;BME280;59438;45.014;39.006;2022-12-18T01:25:06;101925.66;;;7.85;75.01
71643;BME280;59438;45.014;39.006;2022-12-18T01:27:33;101916.94;;;7.82;74.91
71643;BME280;59438;45.014;39.006;2022-12-18T01:30:00;101919.56;;;7.85;75.31
71643;BME280;59438;45.014;39.006;2022-12-18T01:32:28;101918.69;;;7.84;75.37
71643;BME280;59438;45.014;39.006;2022-12-18T01:34:55;101921.31;;;7.84;75.29
71643;BME280;59438;45.014;39.006;2022-12-18T01:37:21;101914.34;;;7.85;75.23
71643;BME280;59438;45.014;39.006;2022-12-18T01:39:49;101909.09;;;7.82;75.14
71643;BME280;59438;45.014;39.006;2022-12-18T01:42:16;101904.75;;;7.81;74.90
71643;BME280;59438;45.014;39.006;2022-12-18T01:45:21;101898.63;;;7.82;75.71
71643;BME280;59438;45.014;39.006;2022-12-18T01:47:50;101864.81;;;7.51;75.11
71643;BME280;59438;45.014;39.006;2022-12-18T01:50:20;101901.34;;;7.73;75.01
71643;BME280;59438;45.014;39.006;2022-12-18T01:52:49;101886.56;;;7.64;75.06
71643;BME280;59438;45.014;39.006;2022-12-18T01:55:19;101896.09;;;7.71;74.97
71643;BME280;59438;45.014;39.006;2022-12-18T01:57:47;101890.00;;;7.69;75.31
71643;BME280;59438;45.014;39.006;2022-12-18T02:00:17;101880.47;;;7.62;75.38
71643;BME280;59438;45.014;39.006;2022-12-18T02:02:45;101889.19;;;7.62;75.42
71643;BME280;59438;45.014;39.006;2022-12-18T02:05:15;101882.19;;;7.61;74.63
71643;BME280;59438;45.014;39.006;2022-12-18T02:07:48;101890.94;;;7.59;75.23
71643;BME280;59438;45.014;39.006;2022-12-18T02:10:26;101845.81;;;7.28;75.29
71643;BME280;59438;45.014;39.006;2022-12-18T02:12:59;101892.72;;;7.52;75.62
71643;BME280;59438;45.014;39.006;2022-12-18T02:15:33;101899.72;;;7.50;74.96
71643;BME280;59438;45.014;39.006;2022-12-18T02:18:06;101895.38;;;7.47;74.90
71643;BME280;59438;45.014;39.006;2022-12-18T02:20:36;101881.47;;;7.38;75.00
71643;BME280;59438;45.014;39.006;2022-12-18T02:23:13;101891.03;;;7.42;74.99
71643;BME280;59438;45.014;39.006;2022-12-18T02:26:13;101901.50;;;7.40;75.12
71643;BME280;59438;45.014;39.006;2022-12-18T02:28:44;101894.56;;;7.33;75.18
71643;BME280;59438;45.014;39.006;2022-12-18T02:31:14;101908.50;;;7.31;75.47
71643;BME280;59438;45.014;39.006;2022-12-18T02:33:53;101897.19;;;7.29;75.74
71643;BME280;59438;45.014;39.006;2022-12-18T02:36:41;101901.53;;;7.28;75.07
71643;BME280;59438;45.014;39.006;2022-12-18T02:39:10;101899.81;;;7.27;75.02
71643;BME280;59438;45.014;39.006;2022-12-18T02:41:39;101908.53;;;7.26;75.19
71643;BME280;59438;45.014;39.006;2022-12-18T02:44:09;101911.13;;;7.24;75.36
71643;BME280;59438;45.014;39.006;2022-12-18T02:46:37;101863.34;;;6.98;75.68
71643;BME280;59438;45.014;39.006;2022-12-18T02:49:12;101907.66;;;7.22;75.77
71643;BME280;59438;45.014;39.006;2022-12-18T02:51:48;101890.25;;;7.21;76.05
71643;BME280;59438;45.014;39.006;2022-12-18T02:54:23;101899.84;;;7.21;75.75
71643;BME280;59438;45.014;39.006;2022-12-18T02:56:55;101895.47;;;7.18;75.54
71643;BME280;59438;45.014;39.006;2022-12-18T02:59:23;101897.22;;;7.25;75.98
71643;BME280;59438;45.014;39.006;2022-12-18T03:01:58;101900.75;;;7.15;75.89
71643;BME280;59438;45.014;39.006;2022-12-18T03:04:28;101898.13;;;7.07;75.37
71643;BME280;59438;45.014;39.006;2022-12-18T03:06:58;101875.56;;;6.90;75.10
71643;BME280;59438;45.014;39.006;2022-12-18T03:09:31;101888.63;;;6.93;75.95
71643;BME280;59438;45.014;39.006;2022-12-18T03:12:03;101895.59;;;6.91;75.65
71643;BME280;59438;45.014;39.006;2022-12-18T03:14:32;101899.97;;;6.84;76.09
71643;BME280;59438;45.014;39.006;2022-12-18T03:17:02;101893.88;;;6.74;75.65
71643;BME280;59438;45.014;39.006;2022-12-18T03:19:32;101932.16;;;6.91;76.19
71643;BME280;59438;45.014;39.006;2022-12-18T03:22:00;101922.59;;;6.85;75.43
71643;BME280;59438;45.014;39.006;2022-12-18T03:24:30;101940.88;;;6.88;75.40
71643;BME280;59438;45.014;39.006;2022-12-18T03:27:02;101900.00;;;6.65;75.40
71643;BME280;59438;45.014;39.006;2022-12-18T03:29:35;101941.72;;;6.85;75.71
71643;BME280;59438;45.014;39.006;2022-12-18T03:32:07;101940.88;;;6.83;75.99
71643;BME280;59438;45.014;39.006;2022-12-18T03:34:38;101938.28;;;6.82;75.68
71643;BME280;59438;45.014;39.006;2022-12-18T03:37:06;101940.03;;;6.80;74.98
71643;BME280;59438;45.014;39.006;2022-12-18T03:39:34;101949.59;;;6.78;75.76
71643;BME280;59438;45.014;39.006;2022-12-18T03:42:05;101940.91;;;6.68;75.44
71643;BME280;59438;45.014;39.006;2022-12-18T03:44:39;101940.03;;;6.64;75.84
71643;BME280;59438;45.014;39.006;2022-12-18T03:47:09;101938.31;;;6.63;75.81
71643;BME280;59438;45.014;39.006;2022-12-18T03:49:43;101947.84;;;6.72;75.39
71643;BME280;59438;45.014;39.006;2022-12-18T03:52:16;101949.59;;;6.72;75.73
71643;BME280;59438;45.014;39.006;2022-12-18T03:54:45;101940.03;;;6.72;75.87
71643;BME280;59438;45.014;39.006;2022-12-18T03:57:16;101943.50;;;6.73;75.91
71643;BME280;59438;45.014;39.006;2022-12-18T03:59:45;101903.50;;;6.48;75.87
71643;BME280;59438;45.014;39.006;2022-12-18T04:02:15;101945.25;;;6.74;75.02
71643;BME280;59438;45.014;39.006;2022-12-18T04:04:43;101953.06;;;6.71;75.77
71643;BME280;59438;45.014;39.006;2022-12-18T04:07:11;101957.44;;;6.72;75.46
71643;BME280;59438;45.014;39.006;2022-12-18T04:09:40;101948.72;;;6.66;75.57
71643;BME280;59438;45.014;39.006;2022-12-18T04:12:08;101953.97;;;6.70;75.80
71643;BME280;59438;45.014;39.006;2022-12-18T04:14:36;101954.84;;;6.65;75.78
71643;BME280;59438;45.014;39.006;2022-12-18T04:17:03;101954.81;;;6.64;75.91
71643;BME280;59438;45.014;39.006;2022-12-18T04:19:29;101953.06;;;6.63;75.93
71643;BME280;59438;45.014;39.006;2022-12-18T04:21:55;101958.31;;;6.64;75.89
71643;BME280;59438;45.014;39.006;2022-12-18T04:24:22;101946.09;;;6.65;75.17
71643;BME280;59438;45.014;39.006;2022-12-18T04:26:48;101954.84;;;6.65;75.02
71643;BME280;59438;45.014;39.006;2022-12-18T04:29:15;101953.09;;;6.66;75.44
71643;BME280;59438;45.014;39.006;2022-12-18T04:31:43;101943.53;;;6.63;75.65
71643;BME280;59438;45.014;39.006;2022-12-18T04:34:09;101949.59;;;6.61;75.16
71643;BME280;59438;45.014;39.006;2022-12-18T04:36:35;101939.19;;;6.55;75.58
71643;BME280;59438;45.014;39.006;2022-12-18T04:39:02;101952.22;;;6.50;75.67
71643;BME280;59438;45.014;39.006;2022-12-18T04:41:29;101953.09;;;6.48;74.74
71643;BME280;59438;45.014;39.006;2022-12-18T04:43:55;101945.28;;;6.43;75.27
71643;BME280;59438;45.014;39.006;2022-12-18T04:46:21;101943.53;;;6.43;75.21
71643;BME280;59438;45.014;39.006;2022-12-18T04:48:49;101939.16;;;6.44;75.81
71643;BME280;59438;45.014;39.006;2022-12-18T04:51:16;101942.66;;;6.46;75.50
71643;BME280;59438;45.014;39.006;2022-12-18T04:53:42;101942.66;;;6.46;75.20
71643;BME280;59438;45.014;39.006;2022-12-18T04:56:11;101947.88;;;6.46;75.16
71643;BME280;59438;45.014;39.006;2022-12-18T04:58:38;101941.78;;;6.45;75.38
71643;BME280;59438;45.014;39.006;2022-12-18T05:01:05;101942.66;;;6.46;75.55
71643;BME280;59438;45.014;39.006;2022-12-18T05:03:31;101939.16;;;6.45;75.50
71643;BME280;59438;45.014;39.006;2022-12-18T05:05:59;101946.13;;;6.43;75.49
71643;BME280;59438;45.014;39.006;2022-12-18T05:08:26;101955.72;;;6.44;74.92
71643;BME280;59438;45.014;39.006;2022-12-18T05:10:58;101952.22;;;6.44;75.24
71643;BME280;59438;45.014;39.006;2022-12-18T05:13:24;101960.06;;;6.47;74.96
71643;BME280;59438;45.014;39.006;2022-12-18T05:15:52;101967.88;;;6.50;75.83
71643;BME280;59438;45.014;39.006;2022-12-18T05:18:18;101965.28;;;6.53;76.03
71643;BME280;59438;45.014;39.006;2022-12-18T05:20:45;101953.97;;;6.57;76.04
71643;BME280;59438;45.014;39.006;2022-12-18T05:23:13;101954.81;;;6.61;75.30
71643;BME280;59438;45.014;39.006;2022-12-18T05:25:39;101955.69;;;6.64;75.72
71643;BME280;59438;45.014;39.006;2022-12-18T05:28:05;101954.81;;;6.67;75.88
71643;BME280;59438;45.014;39.006;2022-12-18T05:30:32;101958.28;;;6.69;75.68
71643;BME280;59438;45.014;39.006;2022-12-18T05:32:58;101949.59;;;6.73;75.26
71643;BME280;59438;45.014;39.006;2022-12-18T05:35:24;101956.53;;;6.77;75.94
71643;BME280;59438;45.014;39.006;2022-12-18T05:37:51;101952.19;;;6.81;75.58
71643;BME280;59438;45.014;39.006;2022-12-18T05:40:19;101952.19;;;6.84;75.50
71643;BME280;59438;45.014;39.006;2022-12-18T05:42:45;101945.22;;;6.89;76.05
71643;BME280;59438;45.014;39.006;2022-12-18T05:45:11;101942.59;;;6.95;75.86
71643;BME280;59438;45.014;39.006;2022-12-18T05:47:38;101937.34;;;7.04;76.22
71643;BME280;59438;45.014;39.006;2022-12-18T05:50:05;101944.28;;;7.13;75.71
71643;BME280;59438;45.014;39.006;2022-12-18T05:52:32;101938.19;;;7.14;75.80
71643;BME280;59438;45.014;39.006;2022-12-18T05:54:58;101952.97;;;7.29;75.67
71643;BME280;59438;45.014;39.006;2022-12-18T05:57:26;101955.53;;;7.37;75.87
71643;BME280;59438;45.014;39.006;2022-12-18T05:59:52;101955.53;;;7.41;75.97
71643;BME280;59438;45.014;39.006;2022-12-18T06:02:19;101961.59;;;7.46;76.02
71643;BME280;59438;45.014;39.006;2022-12-18T06:04:45;101963.31;;;7.52;75.45
71643;BME280;59438;45.014;39.006;2022-12-18T06:07:12;101942.41;;;7.51;75.98
71643;BME280;59438;45.014;39.006;2022-12-18T06:09:38;101951.06;;;7.65;75.92
71643;BME280;59438;45.014;39.006;2022-12-18T06:12:05;101952.75;;;7.74;75.77
71643;BME280;59438;45.014;39.006;2022-12-18T06:14:33;101947.44;;;7.87;76.51
71643;BME280;59438;45.014;39.006;2022-12-18T06:16:59;101956.09;;;7.99;75.70
71643;BME280;59438;45.014;39.006;2022-12-18T06:19:26;101947.28;;;8.09;75.45
71643;BME280;59438;45.014;39.006;2022-12-18T06:21:52;101948.97;;;8.21;75.85
71643;BME280;59438;45.014;39.006;2022-12-18T06:24:19;101942.78;;;8.30;75.61
71643;BME280;59438;45.014;39.006;2022-12-18T06:26:45;101958.44;;;8.42;75.46
71643;BME280;59438;45.014;39.006;2022-12-18T06:29:11;101967.09;;;8.52;75.37
71643;BME280;59438;45.014;39.006;2022-12-18T06:31:39;101965.25;;;8.61;75.48
71643;BME280;59438;45.014;39.006;2022-12-18T06:34:06;101971.28;;;8.71;75.27
71643;BME280;59438;45.014;39.006;2022-12-18T06:36:32;101981.66;;;8.80;75.08
71643;BME280;59438;45.014;39.006;2022-12-18T06:38:59;101978.09;;;8.91;75.19
71643;BME280;59438;45.014;39.006;2022-12-18T06:41:25;101982.34;;;8.99;74.78
71643;BME280;59438;45.014;39.006;2022-12-18T06:43:52;101987.53;;;9.05;75.23
71643;BME280;59438;45.014;39.006;2022-12-18T06:46:19;101977.03;;;9.10;75.04
71643;BME280;59438;45.014;39.006;2022-12-18T06:48:48;101988.31;;;9.15;75.28
71643;BME280;59438;45.014;39.006;2022-12-18T06:51:19;101993.50;;;9.20;75.30
71643;BME280;59438;45.014;39.006;2022-12-18T06:53:46;102002.22;;;9.25;74.75
71643;BME280;59438;45.014;39.006;2022-12-18T06:56:12;102003.91;;;9.27;74.47
71643;BME280;59438;45.014;39.006;2022-12-18T06:58:39;101996.06;;;9.24;74.67
71643;BME280;59438;45.014;39.006;2022-12-18T07:01:09;102012.56;;;9.36;74.35
71643;BME280;59438;45.014;39.006;2022-12-18T07:03:36;101995.97;;;9.35;74.96
71643;BME280;59438;45.014;39.006;2022-12-18T07:06:05;101984.59;;;9.35;74.50
71643;BME280;59438;45.014;39.006;2022-12-18T07:08:31;101995.84;;;9.44;74.71
71643;BME280;59438;45.014;39.006;2022-12-18T07:10:58;101987.06;;;9.50;74.69
71643;BME280;59438;45.014;39.006;2022-12-18T07:13:24;101980.88;;;9.54;75.23
71643;BME280;59438;45.014;39.006;2022-12-18T07:15:51;101995.69;;;9.60;74.33
71643;BME280;59438;45.014;39.006;2022-12-18T07:18:17;101999.97;;;9.65;74.69
71643;BME280;59438;45.014;39.006;2022-12-18T07:20:43;102002.50;;;9.72;75.15
71643;BME280;59438;45.014;39.006;2022-12-18T07:23:12;102002.47;;;9.76;75.34
71643;BME280;59438;45.014;39.006;2022-12-18T07:25:38;101997.16;;;9.81;74.79
71643;BME280;59438;45.014;39.006;2022-12-18T07:28:04;101991.91;;;9.82;75.02
71643;BME280;59438;45.014;39.006;2022-12-18T07:30:31;101987.44;;;9.87;74.34
71643;BME280;59438;45.014;39.006;2022-12-18T07:32:57;102000.41;;;10.00;74.75
71643;BME280;59438;45.014;39.006;2022-12-18T07:35:24;101997.69;;;10.04;74.08
71643;BME280;59438;45.014;39.006;2022-12-18T07:37:50;101994.13;;;10.10;73.92
71643;BME280;59438;45.014;39.006;2022-12-18T07:40:18;101969.81;;;9.99;74.87
71643;BME280;59438;45.014;39.006;2022-12-18T07:42:44;101988.84;;;10.13;73.74
71643;BME280;59438;45.014;39.006;2022-12-18T07:45:11;101999.19;;;10.24;73.87
71643;BME280;59438;45.014;39.006;2022-12-18T07:47:37;101997.34;;;10.29;74.07
71643;BME280;59438;45.014;39.006;2022-12-18T07:50:05;101996.41;;;10.35;73.74
71643;BME280;59438;45.014;39.006;2022-12-18T07:52:32;102006.84;;;10.39;73.91
71643;BME280;59438;45.014;39.006;2022-12-18T07:54:58;101998.16;;;10.36;73.47
71643;BME280;59438;45.014;39.006;2022-12-18T07:57:26;102012.75;;;10.54;73.13
71643;BME280;59438;45.014;39.006;2022-12-18T07:59:52;102010.88;;;10.62;73.50
71643;BME280;59438;45.014;39.006;2022-12-18T08:02:19;102008.13;;;10.68;73.63
71643;BME280;59438;45.014;39.006;2022-12-18T08:04:45;102003.63;;;10.75;72.77
71643;BME280;59438;45.014;39.006;2022-12-18T08:07:11;102005.25;;;10.83;72.50
71643;BME280;59438;45.014;39.006;2022-12-18T08:09:38;102011.22;;;10.93;72.60
71643;BME280;59438;45.014;39.006;2022-12-18T08:12:05;102009.28;;;11.04;72.64
71643;BME280;59438;45.014;39.006;2022-12-18T08:14:33;102004.66;;;11.16;71.71
71643;BME280;59438;45.014;39.006;2022-12-18T08:16:59;102000.09;;;11.27;71.99
71643;BME280;59438;45.014;39.006;2022-12-18T08:19:25;102004.25;;;11.39;71.63
71643;BME280;59438;45.014;39.006;2022-12-18T08:21:52;102006.69;;;11.48;71.23
71643;BME280;59438;45.014;39.006;2022-12-18T08:24:18;101985.47;;;11.56;71.04
71643;BME280;59438;45.014;39.006;2022-12-18T08:26:48;101987.84;;;11.68;70.26
71643;BME280;59438;45.014;39.006;2022-12-18T08:29:14;101979.75;;;11.77;70.66
71643;BME280;59438;45.014;39.006;2022-12-18T08:31:42;101982.13;;;11.88;70.40
71643;BME280;59438;45.014;39.006;2022-12-18T08:34:08;101985.44;;;11.99;70.89
71643;BME280;59438;45.014;39.006;2022-12-18T08:36:35;101985.19;;;12.10;70.09
71643;BME280;59438;45.014;39.006;2022-12-18T08:39:01;101984.75;;;12.28;69.57
71643;BME280;59438;45.014;39.006;2022-12-18T08:41:28;101976.44;;;12.45;69.02
71643;BME280;59438;45.014;39.006;2022-12-18T08:43:54;101946.56;;;12.46;68.81
71643;BME280;59438;45.014;39.006;2022-12-18T08:46:22;101967.88;;;12.73;67.70
71643;BME280;59438;45.014;39.006;2022-12-18T08:48:52;101974.34;;;12.94;66.50
71643;BME280;59438;45.014;39.006;2022-12-18T08:51:19;101990.50;;;13.15;67.34
71643;BME280;59438;45.014;39.006;2022-12-18T08:53:46;101987.38;;;13.33;66.83
71643;BME280;59438;45.014;39.006;2022-12-18T08:56:13;101985.09;;;13.50;66.26
71643;BME280;59438;45.014;39.006;2022-12-18T08:58:39;101976.72;;;13.67;65.94
71643;BME280;59438;45.014;39.006;2022-12-18T09:01:08;101979.75;;;13.83;65.22
71643;BME280;59438;45.014;39.006;2022-12-18T09:03:35;101977.59;;;13.96;64.66
71643;BME280;59438;45.014;39.006;2022-12-18T09:06:04;101976.25;;;14.11;63.13
71643;BME280;59438;45.014;39.006;2022-12-18T09:08:30;101972.25;;;14.26;64.32
71643;BME280;59438;45.014;39.006;2022-12-18T09:10:57;101977.97;;;14.40;64.30
71643;BME280;59438;45.014;39.006;2022-12-18T09:13:24;101957.22;;;14.55;63.99
71643;BME280;59438;45.014;39.006;2022-12-18T09:15:52;101940.19;;;14.63;61.93
71643;BME280;59438;45.014;39.006;2022-12-18T09:18:21;101950.25;;;14.79;61.06
71643;BME280;59438;45.014;39.006;2022-12-18T09:20:48;101948.72;;;14.97;61.84
71643;BME280;59438;45.014;39.006;2022-12-18T09:23:16;101946.53;;;15.09;59.81
71643;BME280;59438;45.014;39.006;2022-12-18T09:25:43;101958.38;;;15.23;61.49
71643;BME280;59438;45.014;39.006;2022-12-18T09:28:11;101971.28;;;15.32;59.52
71643;BME280;59438;45.014;39.006;2022-12-18T09:30:38;101970.03;;;15.42;60.63
71643;BME280;59438;45.014;39.006;2022-12-18T09:33:05;101972.31;;;15.51;60.24
71643;BME280;59438;45.014;39.006;2022-12-18T09:35:31;101960.69;;;15.56;60.41
71643;BME280;59438;45.014;39.006;2022-12-18T09:37:58;101975.22;;;15.69;59.66
71643;BME280;59438;45.014;39.006;2022-12-18T09:40:30;101960.97;;;15.71;57.34
71643;BME280;59438;45.014;39.006;2022-12-18T09:43:01;101964.09;;;15.83;57.74
71643;BME280;59438;45.014;39.006;2022-12-18T09:45:30;101974.59;;;15.86;58.20
71643;BME280;59438;45.014;39.006;2022-12-18T09:48:03;101968.06;;;15.95;58.21
71643;BME280;59438;45.014;39.006;2022-12-18T09:50:34;101934.94;;;15.83;57.40
71643;BME280;59438;45.014;39.006;2022-12-18T09:53:04;101958.00;;;16.03;57.02
71643;BME280;59438;45.014;39.006;2022-12-18T09:55:36;101964.13;;;16.05;57.54
71643;BME280;59438;45.014;39.006;2022-12-18T09:58:07;101948.47;;;15.99;56.91
71643;BME280;59438;45.014;39.006;2022-12-18T10:00:39;101953.56;;;16.03;58.87
71643;BME280;59438;45.014;39.006;2022-12-18T10:03:10;101950.16;;;16.00;57.68
71643;BME280;59438;45.014;39.006;2022-12-18T10:05:40;101943.34;;;15.94;57.77
71643;BME280;59438;45.014;39.006;2022-12-18T10:08:13;101949.59;;;15.91;57.37
71643;BME280;59438;45.014;39.006;2022-12-18T10:10:48;101948.81;;;15.89;56.81
71643;BME280;59438;45.014;39.006;2022-12-18T10:13:22;101952.44;;;15.87;56.29
71643;BME280;59438;45.014;39.006;2022-12-18T10:15:58;101931.81;;;15.73;56.00
71643;BME280;59438;45.014;39.006;2022-12-18T10:18:45;101961.00;;;15.94;56.25
71643;BME280;59438;45.014;39.006;2022-12-18T10:21:28;101952.97;;;15.97;56.32
71643;BME280;59438;45.014;39.006;2022-12-18T10:24:04;101940.69;;;15.94;55.84
71643;BME280;59438;45.014;39.006;2022-12-18T10:26:35;101949.38;;;15.98;56.33
71643;BME280;59438;45.014;39.006;2022-12-18T10:29:09;101944.31;;;15.91;56.24
71643;BME280;59438;45.014;39.006;2022-12-18T10:31:37;101945.25;;;15.90;57.86
71643;BME280;59438;45.014;39.006;2022-12-18T10:34:03;101951.47;;;15.89;58.04
71643;BME280;59438;45.014;39.006;2022-12-18T10:36:30;101961.34;;;15.86;57.94
71643;BME280;59438;45.014;39.006;2022-12-18T10:39:14;101964.03;;;15.84;56.40
71643;BME280;59438;45.014;39.006;2022-12-18T10:41:42;101961.56;;;15.80;57.07
71643;BME280;59438;45.014;39.006;2022-12-18T10:44:16;101963.34;;;15.79;56.21
71643;BME280;59438;45.014;39.006;2022-12-18T10:46:44;101967.06;;;15.75;57.54
71643;BME280;59438;45.014;39.006;2022-12-18T10:49:19;101966.25;;;15.73;56.24
71643;BME280;59438;45.014;39.006;2022-12-18T10:51:47;101978.72;;;15.69;58.00
71643;BME280;59438;45.014;39.006;2022-12-18T10:54:16;101983.38;;;15.63;57.38
71643;BME280;59438;45.014;39.006;2022-12-18T10:56:45;102000.00;;;15.66;57.74
71643;BME280;59438;45.014;39.006;2022-12-18T10:59:14;101970.72;;;15.47;58.13
71643;BME280;59438;45.014;39.006;2022-12-18T11:01:51;102003.53;;;15.67;57.27
71643;BME280;59438;45.014;39.006;2022-12-18T11:04:20;101979.50;;;15.48;58.02
71643;BME280;59438;45.014;39.006;2022-12-18T11:07:00;102011.53;;;15.65;57.60
71643;BME280;59438;45.014;39.006;2022-12-18T11:09:29;102016.94;;;15.62;58.35
71643;BME280;59438;45.014;39.006;2022-12-18T11:12:05;102017.06;;;15.59;57.57
71643;BME280;59438;45.014;39.006;2022-12-18T11:14:46;102018.84;;;15.59;58.08
71643;BME280;59438;45.014;39.006;2022-12-18T11:17:18;102012.75;;;15.57;58.80
71643;BME280;59438;45.014;39.006;2022-12-18T11:19:52;102017.25;;;15.55;58.99
71643;BME280;59438;45.014;39.006;2022-12-18T11:22:21;102009.66;;;15.44;59.81
71643;BME280;59438;45.014;39.006;2022-12-18T11:25:05;102027.13;;;15.49;59.31
71643;BME280;59438;45.014;39.006;2022-12-18T11:27:33;102038.75;;;15.45;59.96
71643;BME280;59438;45.014;39.006;2022-12-18T11:30:08;102039.81;;;15.40;60.55
71643;BME280;59438;45.014;39.006;2022-12-18T11:32:36;102041.03;;;15.31;60.90
71643;BME280;59438;45.014;39.006;2022-12-18T11:35:11;102041.19;;;15.26;61.15
71643;BME280;59438;45.014;39.006;2022-12-18T11:37:46;102012.00;;;15.03;61.33
71643;BME280;59438;45.014;39.006;2022-12-18T11:40:17;102040.78;;;15.14;61.90
71643;BME280;59438;45.014;39.006;2022-12-18T11:42:51;102039.19;;;15.08;62.20
71643;BME280;59438;45.014;39.006;2022-12-18T11:45:27;102041.28;;;14.98;62.29
71643;BME280;59438;45.014;39.006;2022-12-18T11:47:57;102008.66;;;14.73;63.05
71643;BME280;59438;45.014;39.006;2022-12-18T11:50:28;102043.56;;;14.82;63.05
71643;BME280;59438;45.014;39.006;2022-12-18T11:52:55;102056.75;;;14.84;63.28
71643;BME280;59438;45.014;39.006;2022-12-18T11:55:29;102059.59;;;14.78;64.46
71643;BME280;59438;45.014;39.006;2022-12-18T11:58:03;102080.91;;;14.73;64.67
71643;BME280;59438;45.014;39.006;2022-12-18T12:00:35;102077.63;;;14.66;65.57
71643;BME280;59438;45.014;39.006;2022-12-18T12:03:21;102081.31;;;14.61;66.54
71643;BME280;59438;45.014;39.006;2022-12-18T12:05:58;102076.34;;;14.50;66.84
71643;BME280;59438;45.014;39.006;2022-12-18T12:08:37;102090.72;;;14.41;67.89
71643;BME280;59438;45.014;39.006;2022-12-18T12:11:11;102110.28;;;14.36;67.65
71643;BME280;59438;45.014;39.006;2022-12-18T12:13:48;102109.59;;;14.29;68.44
71643;BME280;59438;45.014;39.006;2022-12-18T12:16:24;102117.81;;;14.18;68.57
71643;BME280;59438;45.014;39.006;2022-12-18T12:19:05;102120.66;;;14.12;68.90
71643;BME280;59438;45.014;39.006;2022-12-18T12:21:38;102113.78;;;14.06;69.30
71643;BME280;59438;45.014;39.006;2022-12-18T12:24:18;102090.75;;;13.80;70.40
71643;BME280;59438;45.014;39.006;2022-12-18T12:26:57;102118.50;;;13.95;70.32
71643;BME280;59438;45.014;39.006;2022-12-18T12:29:39;102116.88;;;13.91;70.34
71643;BME280;59438;45.014;39.006;2022-12-18T12:32:16;102121.53;;;13.81;70.79
71643;BME280;59438;45.014;39.006;2022-12-18T12:34:57;102123.41;;;13.78;71.20
71643;BME280;59438;45.014;39.006;2022-12-18T12:37:34;102121.81;;;13.72;71.89
71643;BME280;59438;45.014;39.006;2022-12-18T12:40:06;102121.03;;;13.67;70.22
71643;BME280;59438;45.014;39.006;2022-12-18T12:42:35;102129.09;;;13.62;70.34
71643;BME280;59438;45.014;39.006;2022-12-18T12:45:14;102126.78;;;13.50;72.08
71643;BME280;59438;45.014;39.006;2022-12-18T12:47:44;102148.81;;;13.49;71.43
71643;BME280;59438;45.014;39.006;2022-12-18T12:50:15;102097.56;;;13.22;71.69
71643;BME280;59438;45.014;39.006;2022-12-18T12:52:45;102145.56;;;13.39;71.69
71643;BME280;59438;45.014;39.006;2022-12-18T12:55:17;102150.88;;;13.38;72.17
71643;BME280;59438;45.014;39.006;2022-12-18T12:57:48;102156.28;;;13.32;71.70